createdAt,value
2019-03-27T00:01:58.490Z,32.58
2019-03-27T00:04:31.922Z,36.23
2019-03-27T00:07:02.083Z,27.93
2019-03-27T00:09:31.985Z,26.65
2019-03-27T00:12:02.106Z,25.23
2019-03-27T00:14:32.162Z,23.50
2019-03-27T00:17:02.078Z,20.82
2019-03-27T00:19:33.164Z,28.47
2019-03-27T00:22:03.066Z,31.45
2019-03-27T00:24:33.030Z,34.00
2019-03-27T00:27:03.120Z,33.23
2019-03-27T00:29:33.439Z,26.42
2019-03-27T00:32:03.399Z,25.95
2019-03-27T00:34:33.335Z,26.02
2019-03-27T00:37:03.507Z,27.17
2019-03-27T00:39:33.223Z,26.05
2019-03-27T00:42:03.078Z,21.30
2019-03-27T00:44:33.225Z,23.32
2019-03-27T00:47:03.052Z,24.75
2019-03-27T00:49:33.409Z,28.80
2019-03-27T00:52:03.417Z,33.75
2019-03-27T00:54:33.451Z,35.28
2019-03-27T00:57:05.021Z,31.73
2019-03-27T00:59:34.860Z,28.60
2019-03-27T01:02:06.085Z,22.85
2019-03-27T01:04:37.391Z,19.17
2019-03-27T01:07:07.332Z,20.13
2019-03-27T01:09:37.802Z,21.35
2019-03-27T01:12:08.127Z,24.20
2019-03-27T01:14:38.987Z,25.70
2019-03-27T01:17:08.988Z,38.45
2019-03-27T01:19:41.093Z,44.55
2019-03-27T01:22:10.932Z,35.13
2019-03-27T01:24:41.100Z,27.80
2019-03-27T01:27:10.966Z,33.67
2019-03-27T01:29:42.533Z,36.28
2019-03-27T01:32:12.579Z,36.35
2019-03-27T01:34:47.028Z,33.47
2019-03-27T01:37:16.883Z,30.88
2019-03-27T01:39:48.284Z,25.40
2019-03-27T01:42:18.418Z,27.58
2019-03-27T01:44:48.338Z,31.62
2019-03-27T01:47:18.277Z,28.57
2019-03-27T01:49:49.422Z,27.10
2019-03-27T01:52:19.590Z,28.77
2019-03-27T01:54:49.892Z,30.02
2019-03-27T01:57:19.751Z,30.57
2019-03-27T01:59:49.648Z,27.13
2019-03-27T02:02:19.706Z,24.25
2019-03-27T02:04:50.644Z,24.02
2019-03-27T02:07:20.756Z,23.83
2019-03-27T02:09:50.596Z,22.02
2019-03-27T02:12:20.656Z,22.87
2019-03-27T02:14:50.502Z,18.98
2019-03-27T02:17:20.932Z,20.70
2019-03-27T02:19:51.023Z,28.27
2019-03-27T02:22:21.075Z,31.25
2019-03-27T02:24:51.174Z,32.35
2019-03-27T02:27:21.199Z,31.15
2019-03-27T02:29:51.223Z,26.17
2019-03-27T02:32:21.370Z,21.90
2019-03-27T02:34:51.335Z,17.80
2019-03-27T02:37:21.489Z,17.80
2019-03-27T02:39:51.633Z,17.77
2019-03-27T02:42:22.850Z,15.30
2019-03-27T02:44:52.694Z,15.80
2019-03-27T02:47:22.560Z,16.97
2019-03-27T02:49:52.416Z,17.55
2019-03-27T02:52:22.395Z,17.95
2019-03-27T02:54:52.441Z,19.50
2019-03-27T02:57:22.554Z,16.30
2019-03-27T02:59:52.442Z,20.72
2019-03-27T03:02:22.518Z,18.73
2019-03-27T03:04:53.229Z,19.30
2019-03-27T03:07:23.530Z,18.67
2019-03-27T03:09:54.443Z,18.80
2019-03-27T03:12:25.894Z,21.37
2019-03-27T03:14:55.828Z,21.82
2019-03-27T03:17:26.062Z,20.82
2019-03-27T03:19:56.212Z,21.02
2019-03-27T03:22:27.389Z,19.63
2019-03-27T03:24:57.525Z,15.15
2019-03-27T03:27:27.552Z,16.62
2019-03-27T03:29:57.517Z,18.20
2019-03-27T03:32:27.628Z,19.52
2019-03-27T03:34:57.503Z,43.85
2019-03-27T03:37:27.501Z,29.25
2019-03-27T03:39:57.795Z,23.40
2019-03-27T03:42:27.927Z,19.17
2019-03-27T03:44:57.716Z,15.80
2019-03-27T03:47:27.573Z,15.20
2019-03-27T03:49:57.591Z,13.75
2019-03-27T03:52:28.012Z,13.72
2019-03-27T03:55:00.932Z,14.87
2019-03-27T03:57:31.752Z,14.28
2019-03-27T04:00:03.034Z,16.67
2019-03-27T04:02:38.271Z,12.05
2019-03-27T04:05:11.511Z,12.60
2019-03-27T04:07:41.854Z,12.58
2019-03-27T04:10:11.662Z,10.70
2019-03-27T04:12:41.681Z,10.40
2019-03-27T04:15:11.617Z,11.85
2019-03-27T04:17:41.820Z,13.32
2019-03-27T04:20:13.186Z,12.93
2019-03-27T04:22:45.825Z,11.93
2019-03-27T04:25:15.761Z,11.95
2019-03-27T04:27:45.647Z,11.60
2019-03-27T04:30:15.507Z,12.15
2019-03-27T04:32:45.748Z,11.45
2019-03-27T04:35:15.771Z,11.97
2019-03-27T04:37:45.993Z,11.50
2019-03-27T04:40:15.972Z,11.70
2019-03-27T04:42:46.604Z,14.58
2019-03-27T04:45:19.515Z,16.77
2019-03-27T04:47:50.004Z,29.87
2019-03-27T04:50:20.440Z,16.90
2019-03-27T04:52:50.854Z,14.30
2019-03-27T04:55:20.818Z,16.48
2019-03-27T04:57:56.967Z,17.82
2019-03-27T05:00:28.717Z,17.57
2019-03-27T05:02:59.328Z,19.42
2019-03-27T05:05:30.379Z,22.10
2019-03-27T05:08:00.500Z,22.75
2019-03-27T05:10:30.925Z,23.85
2019-03-27T05:13:01.354Z,31.35
2019-03-27T05:15:31.696Z,30.65
2019-03-27T05:18:02.282Z,40.70
2019-03-27T05:20:32.381Z,49.77
2019-03-27T05:23:03.104Z,59.65
2019-03-27T05:25:33.523Z,58.95
2019-03-27T05:28:03.532Z,60.70
2019-03-27T05:30:34.007Z,54.98
2019-03-27T05:33:13.676Z,39.15
2019-03-27T05:35:43.661Z,40.65
2019-03-27T05:38:14.742Z,43.80
2019-03-27T05:40:45.199Z,41.73
2019-03-27T05:43:15.536Z,39.85
2019-03-27T05:45:46.563Z,37.90
2019-03-27T05:48:17.425Z,31.20
2019-03-27T05:50:56.635Z,29.57
2019-03-27T05:53:28.232Z,26.97
2019-03-27T05:55:58.575Z,25.12
2019-03-27T05:58:29.019Z,24.95
2019-03-27T06:00:59.094Z,25.20
2019-03-27T06:03:30.259Z,23.02
2019-03-27T06:06:01.683Z,21.42
2019-03-27T06:08:32.278Z,18.45
2019-03-27T06:11:02.771Z,20.25
2019-03-27T06:13:33.762Z,18.02
2019-03-27T06:16:04.170Z,16.23
2019-03-27T06:18:34.750Z,17.92
2019-03-27T06:21:11.218Z,17.02
2019-03-27T06:23:41.743Z,16.32
2019-03-27T06:26:12.182Z,16.37
2019-03-27T06:28:43.005Z,16.10
2019-03-27T06:31:13.181Z,14.93
2019-03-27T06:33:43.910Z,13.40
2019-03-27T06:36:14.572Z,13.98
2019-03-27T06:38:44.871Z,13.68
2019-03-27T06:41:15.133Z,11.40
2019-03-27T06:43:45.878Z,11.57
2019-03-27T06:46:16.102Z,11.93
2019-03-27T06:48:46.823Z,10.58
2019-03-27T06:51:17.276Z,9.70
2019-03-27T06:53:47.766Z,9.80
2019-03-27T06:56:18.320Z,9.55
2019-03-27T06:58:54.377Z,8.90
2019-03-27T07:01:20.905Z,8.50
2019-03-27T07:03:51.325Z,8.83
2019-03-27T07:06:22.462Z,8.85
2019-03-27T07:08:52.978Z,7.60
2019-03-27T07:11:23.329Z,7.72
2019-03-27T07:13:53.586Z,8.03
2019-03-27T07:16:23.963Z,8.48
2019-03-27T07:18:54.320Z,8.28
2019-03-27T07:21:24.924Z,7.83
2019-03-27T07:23:55.330Z,7.90
2019-03-27T07:26:25.887Z,8.40
2019-03-27T07:29:00.045Z,8.35
2019-03-27T07:31:30.558Z,8.33
2019-03-27T07:34:01.107Z,9.88
2019-03-27T07:36:31.417Z,8.43
2019-03-27T07:39:10.817Z,8.95
2019-03-27T07:44:03.941Z,7.47
2019-03-27T07:46:34.324Z,7.83
2019-03-27T07:49:05.205Z,8.43
2019-03-27T07:51:35.747Z,7.22
2019-03-27T07:54:06.485Z,6.50
2019-03-27T07:56:36.663Z,8.38
2019-03-27T07:59:07.496Z,6.80
2019-03-27T08:01:38.044Z,6.20
2019-03-27T08:04:08.846Z,6.47
2019-03-27T08:06:40.532Z,6.25
2019-03-27T08:09:11.376Z,6.72
2019-03-27T08:11:42.278Z,5.87
2019-03-27T08:14:13.040Z,6.15
2019-03-27T08:16:44.092Z,6.30
2019-03-27T08:19:21.011Z,6.67
2019-03-27T08:21:52.878Z,6.15
2019-03-27T08:24:23.111Z,6.42
2019-03-27T08:26:54.275Z,6.25
2019-03-27T08:29:24.975Z,5.60
2019-03-27T08:31:55.199Z,6.12
2019-03-27T08:34:25.195Z,6.50
2019-03-27T08:36:55.038Z,6.42
2019-03-27T08:39:25.157Z,7.42
2019-03-27T08:41:55.381Z,6.97
2019-03-27T08:44:25.452Z,7.78
2019-03-27T08:46:55.375Z,7.35
2019-03-27T08:49:25.454Z,7.47
2019-03-27T08:51:55.468Z,7.45
2019-03-27T08:54:25.605Z,7.53
2019-03-27T08:56:55.585Z,7.25
2019-03-27T08:59:25.576Z,6.97
2019-03-27T09:01:55.346Z,7.00
2019-03-27T09:04:25.371Z,6.80
2019-03-27T09:06:56.367Z,6.58
2019-03-27T09:09:26.204Z,5.92
2019-03-27T09:11:56.307Z,6.42
2019-03-27T09:14:26.411Z,4.83
2019-03-27T09:16:56.508Z,4.00
2019-03-27T09:19:35.556Z,3.45
2019-03-27T09:24:27.809Z,3.45
2019-03-27T09:26:57.676Z,3.80
2019-03-27T09:29:27.827Z,4.10
2019-03-27T09:31:59.054Z,3.07
2019-03-27T09:34:29.249Z,3.30
2019-03-27T09:36:59.068Z,3.00
2019-03-27T09:39:29.286Z,3.30
2019-03-27T09:41:59.195Z,2.95
2019-03-27T09:44:29.112Z,3.30
2019-03-27T09:46:59.165Z,2.65
2019-03-27T09:49:29.039Z,2.92
2019-03-27T09:51:59.064Z,2.70
2019-03-27T09:54:29.233Z,3.10
2019-03-27T09:56:59.430Z,2.95
2019-03-27T09:59:29.403Z,3.25
2019-03-27T10:02:00.873Z,2.90
2019-03-27T10:04:30.959Z,2.85
2019-03-27T10:07:01.817Z,3.12
2019-03-27T10:09:31.925Z,2.72
2019-03-27T10:12:01.996Z,3.52
2019-03-27T10:14:31.975Z,2.83
2019-03-27T10:17:02.121Z,2.85
2019-03-27T10:19:32.406Z,3.55
2019-03-27T10:22:02.630Z,3.20
2019-03-27T10:24:32.833Z,3.62
2019-03-27T10:27:02.745Z,3.62
2019-03-27T10:29:32.912Z,3.75
2019-03-27T10:32:03.345Z,3.85
2019-03-27T10:34:33.316Z,5.00
2019-03-27T10:37:04.059Z,3.98
2019-03-27T10:39:34.001Z,4.12
2019-03-27T10:42:04.196Z,3.83
2019-03-27T10:44:34.501Z,5.05
2019-03-27T10:47:04.856Z,8.30
2019-03-27T10:49:35.119Z,3.92
2019-03-27T10:52:05.177Z,3.67
2019-03-27T10:54:35.310Z,7.33
2019-03-27T10:57:05.186Z,3.40
2019-03-27T10:59:35.091Z,3.77
2019-03-27T11:02:05.112Z,3.55
2019-03-27T11:04:36.412Z,3.35
2019-03-27T11:07:09.652Z,2.98
2019-03-27T11:09:40.671Z,2.37
2019-03-27T11:12:10.679Z,2.90
2019-03-27T11:14:40.743Z,2.55
2019-03-27T11:17:14.706Z,7.95
2019-03-27T11:19:46.471Z,5.03
2019-03-27T11:22:16.757Z,4.75
2019-03-27T11:24:46.667Z,3.72
2019-03-27T11:27:16.698Z,5.92
2019-03-27T11:29:46.656Z,3.98
2019-03-27T11:32:16.727Z,6.20
2019-03-27T11:34:46.612Z,6.20
2019-03-27T11:37:16.622Z,3.30
2019-03-27T11:39:46.627Z,3.15
2019-03-27T11:42:16.719Z,7.83
2019-03-27T11:44:46.542Z,3.15
2019-03-27T11:47:16.793Z,3.45
2019-03-27T11:49:46.746Z,3.62
2019-03-27T11:52:16.761Z,5.60
2019-03-27T11:54:46.693Z,4.30
2019-03-27T11:57:16.511Z,4.95
2019-03-27T11:59:53.957Z,6.20
2019-03-27T12:02:17.937Z,4.67
2019-03-27T12:04:48.050Z,4.50
2019-03-27T12:07:18.698Z,3.17
2019-03-27T12:09:48.594Z,3.65
2019-03-27T12:12:18.781Z,3.67
2019-03-27T12:14:48.565Z,3.40
2019-03-27T12:17:18.704Z,3.47
2019-03-27T12:19:48.803Z,4.53
2019-03-27T12:22:18.635Z,3.17
2019-03-27T12:24:48.791Z,3.98
2019-03-27T12:27:18.816Z,4.17
2019-03-27T12:29:49.026Z,3.80
2019-03-27T12:32:18.922Z,3.62
2019-03-27T12:34:48.918Z,3.33
2019-03-27T12:37:18.759Z,3.30
2019-03-27T12:39:48.726Z,4.17
2019-03-27T12:42:23.722Z,4.90
2019-03-27T12:45:02.698Z,7.40
2019-03-27T12:47:44.131Z,4.62
2019-03-27T12:50:27.258Z,5.47
2019-03-27T12:53:12.556Z,3.25
2019-03-27T12:55:48.492Z,2.80
2019-03-27T12:58:26.251Z,3.08
2019-03-27T13:01:06.810Z,2.37
2019-03-27T13:03:40.002Z,2.95
2019-03-27T13:06:09.989Z,2.77
2019-03-27T13:08:40.752Z,2.50
2019-03-27T13:11:10.531Z,2.92
2019-03-27T13:13:40.434Z,2.67
2019-03-27T13:16:10.312Z,2.98
2019-03-27T13:18:40.204Z,2.62
2019-03-27T13:21:11.093Z,2.00
2019-03-27T13:23:41.130Z,1.85
2019-03-27T13:26:10.884Z,2.33
2019-03-27T13:28:48.891Z,2.33
2019-03-27T13:31:12.740Z,2.47
2019-03-27T13:33:42.595Z,2.50
2019-03-27T13:36:12.490Z,2.42
2019-03-27T13:38:42.219Z,2.40
2019-03-27T13:41:12.191Z,2.10
2019-03-27T13:43:42.205Z,2.17
2019-03-27T13:46:12.168Z,2.72
2019-03-27T13:48:42.443Z,2.37
2019-03-27T13:51:12.377Z,4.03
2019-03-27T13:53:42.461Z,3.80
2019-03-27T13:56:13.069Z,2.42
2019-03-27T13:58:44.564Z,2.52
2019-03-27T14:01:14.743Z,2.45
2019-03-27T14:03:44.634Z,2.45
2019-03-27T14:06:14.970Z,3.00
2019-03-27T14:08:45.961Z,2.75
2019-03-27T14:11:16.037Z,3.75
2019-03-27T14:13:46.050Z,3.10
2019-03-27T14:16:15.937Z,5.00
2019-03-27T14:18:48.840Z,2.95
2019-03-27T14:21:17.781Z,2.90
2019-03-27T14:23:47.754Z,3.10
2019-03-27T14:26:17.930Z,2.40
2019-03-27T14:28:48.151Z,2.47
2019-03-27T14:31:19.331Z,4.08
2019-03-27T14:33:49.426Z,3.62
2019-03-27T14:36:19.160Z,2.08
2019-03-27T14:38:49.190Z,3.70
2019-03-27T14:41:19.693Z,3.45
2019-03-27T14:43:50.132Z,3.95
2019-03-27T14:46:20.639Z,4.00
2019-03-27T14:48:51.380Z,3.83
2019-03-27T14:51:34.291Z,4.20
2019-03-27T14:54:05.031Z,3.70
2019-03-27T14:56:35.531Z,5.58
2019-03-27T14:59:09.535Z,7.22
2019-03-27T15:01:40.119Z,4.92
2019-03-27T15:04:10.986Z,4.10
2019-03-27T15:06:40.926Z,6.80
2019-03-27T15:09:11.790Z,6.35
2019-03-27T15:11:41.938Z,4.92
2019-03-27T15:14:11.927Z,5.40
2019-03-27T15:16:41.757Z,5.12
2019-03-27T15:19:11.866Z,6.20
2019-03-27T15:21:41.967Z,4.75
2019-03-27T15:24:12.008Z,5.55
2019-03-27T15:26:41.943Z,6.47
2019-03-27T15:29:11.745Z,6.92
2019-03-27T15:31:41.529Z,6.42
2019-03-27T15:34:11.813Z,9.43
2019-03-27T15:36:41.634Z,9.60
2019-03-27T15:39:11.675Z,9.08
2019-03-27T15:41:42.032Z,9.95
2019-03-27T15:44:17.627Z,8.63
2019-03-27T15:46:47.642Z,7.28
2019-03-27T15:49:17.604Z,10.15
2019-03-27T15:51:47.502Z,7.20
2019-03-27T15:54:17.472Z,7.85
2019-03-27T15:56:47.596Z,9.43
2019-03-27T15:59:17.783Z,7.62
2019-03-27T16:01:47.689Z,8.70
2019-03-27T16:04:18.572Z,7.65
2019-03-27T16:06:49.058Z,8.45
2019-03-27T16:09:20.293Z,5.70
2019-03-27T16:11:50.410Z,7.85
2019-03-27T16:14:20.296Z,6.22
2019-03-27T16:17:06.870Z,6.55
2019-03-27T16:19:22.129Z,9.25
2019-03-27T16:21:51.875Z,6.62
2019-03-27T16:24:21.790Z,7.62
2019-03-27T16:27:03.837Z,9.48
2019-03-27T16:29:23.222Z,8.63
2019-03-27T16:31:53.356Z,13.25
2019-03-27T16:34:25.259Z,6.25
2019-03-27T16:36:55.267Z,6.97
2019-03-27T16:39:26.402Z,10.53
2019-03-27T16:41:56.445Z,6.42
2019-03-27T16:44:26.536Z,6.95
2019-03-27T16:46:56.535Z,9.28
2019-03-27T16:49:26.591Z,7.08
2019-03-27T16:51:56.693Z,7.78
2019-03-27T16:54:26.562Z,9.10
2019-03-27T16:56:56.631Z,8.05
2019-03-27T16:59:26.600Z,7.72
2019-03-27T17:01:58.838Z,8.88
2019-03-27T17:04:31.795Z,8.58
2019-03-27T17:07:03.968Z,9.73
2019-03-27T17:09:35.161Z,9.50
2019-03-27T17:12:08.040Z,10.70
2019-03-27T17:14:38.364Z,8.60
2019-03-27T17:17:09.493Z,8.70
2019-03-27T17:19:39.611Z,8.45
2019-03-27T17:22:19.554Z,8.13
2019-03-27T17:24:41.362Z,8.60
2019-03-27T17:27:30.802Z,8.83
2019-03-27T17:30:00.850Z,11.05
2019-03-27T17:32:30.705Z,8.68
2019-03-27T17:35:00.550Z,9.60
2019-03-27T17:37:30.356Z,8.45
2019-03-27T17:40:00.371Z,8.45
2019-03-27T17:42:34.535Z,10.15
2019-03-27T17:45:24.880Z,9.13
2019-03-27T17:47:58.122Z,9.55
2019-03-27T17:50:27.940Z,9.43
2019-03-27T17:52:57.681Z,9.00
2019-03-27T17:55:28.138Z,8.50
2019-03-27T17:57:58.007Z,9.20
2019-03-27T18:00:40.123Z,8.73
2019-03-27T18:03:10.029Z,8.03
2019-03-27T18:05:39.957Z,9.03
2019-03-27T18:08:10.824Z,9.65
2019-03-27T18:10:41.671Z,7.42
2019-03-27T18:13:11.910Z,7.58
2019-03-27T18:15:44.926Z,7.83
2019-03-27T18:18:14.801Z,8.13
2019-03-27T18:20:45.024Z,7.60
2019-03-27T18:23:14.813Z,9.55
2019-03-27T18:25:44.847Z,8.28
2019-03-27T18:28:14.871Z,8.90
2019-03-27T18:30:45.897Z,8.53
2019-03-27T18:33:15.728Z,9.43
2019-03-27T18:35:45.727Z,8.45
2019-03-27T18:38:15.564Z,8.70
2019-03-27T18:40:45.571Z,11.68
2019-03-27T18:43:15.490Z,14.35
2019-03-27T18:45:45.749Z,15.25
2019-03-27T18:48:15.726Z,19.10
2019-03-27T18:50:45.657Z,23.07
2019-03-27T18:53:15.471Z,20.17
2019-03-27T18:55:45.470Z,22.98
2019-03-27T18:58:15.538Z,18.57
2019-03-27T19:00:45.513Z,17.82
2019-03-27T19:03:15.495Z,19.27
2019-03-27T19:05:45.370Z,20.20
2019-03-27T19:08:15.357Z,20.08
2019-03-27T19:10:46.090Z,17.45
2019-03-27T19:13:17.042Z,17.45
2019-03-27T19:15:47.121Z,17.95
2019-03-27T19:18:16.959Z,17.27
2019-03-27T19:20:47.034Z,15.95
2019-03-27T19:23:16.873Z,14.55
2019-03-27T19:25:46.781Z,14.18
2019-03-27T19:28:16.771Z,12.73
2019-03-27T19:30:46.584Z,12.78
2019-03-27T19:33:16.482Z,11.97
2019-03-27T19:35:46.248Z,14.53
2019-03-27T19:38:16.281Z,13.40
2019-03-27T19:40:46.043Z,12.07
2019-03-27T19:43:15.942Z,13.43
2019-03-27T19:45:46.076Z,10.98
2019-03-27T19:48:15.992Z,10.40
2019-03-27T19:50:45.811Z,11.48
2019-03-27T19:53:15.603Z,11.18
2019-03-27T19:55:45.442Z,12.37
2019-03-27T19:58:15.507Z,13.00
2019-03-27T20:00:45.508Z,11.73
2019-03-27T20:03:15.336Z,13.08
2019-03-27T20:05:45.322Z,11.03
2019-03-27T20:08:15.343Z,11.88
2019-03-27T20:10:45.163Z,11.10
2019-03-27T20:13:15.832Z,12.47
2019-03-27T20:15:45.672Z,11.55
2019-03-27T20:18:15.612Z,12.03
2019-03-27T20:20:45.618Z,11.20
2019-03-27T20:23:15.737Z,11.93
2019-03-27T20:25:45.875Z,11.90
2019-03-27T20:28:15.734Z,12.28
2019-03-27T20:30:46.044Z,12.33
2019-03-27T20:33:15.906Z,12.28
2019-03-27T20:35:50.250Z,15.25
2019-03-27T20:38:32.839Z,12.88
2019-03-27T20:41:02.967Z,14.43
2019-03-27T20:43:33.040Z,14.43
2019-03-27T20:46:03.180Z,14.93
2019-03-27T20:48:33.215Z,17.87
2019-03-27T20:51:05.119Z,17.45
2019-03-27T20:53:35.129Z,14.70
2019-03-27T20:56:05.107Z,14.38
2019-03-27T20:58:35.234Z,20.10
2019-03-27T21:01:05.664Z,14.98
2019-03-27T21:03:38.884Z,15.05
2019-03-27T21:06:08.721Z,13.15
2019-03-27T21:08:42.429Z,14.23
2019-03-27T21:11:12.596Z,13.83
2019-03-27T21:13:43.280Z,17.73
2019-03-27T21:16:17.783Z,15.08
2019-03-27T21:18:48.035Z,16.30
2019-03-27T21:21:18.086Z,17.70
2019-03-27T21:23:48.600Z,22.48
2019-03-27T21:26:18.900Z,35.30
2019-03-27T21:28:48.695Z,23.00
2019-03-27T21:31:18.926Z,14.95
2019-03-27T21:33:48.872Z,12.50
2019-03-27T21:36:18.865Z,13.38
2019-03-27T21:38:50.034Z,12.80
2019-03-27T21:41:21.583Z,12.65
2019-03-27T21:43:51.478Z,13.00
2019-03-27T21:46:21.574Z,12.28
2019-03-27T21:48:51.482Z,12.55
2019-03-27T21:51:21.583Z,12.80
2019-03-27T21:53:51.487Z,12.80
2019-03-27T21:56:21.487Z,14.38
2019-03-27T21:58:51.268Z,12.07
2019-03-27T22:01:21.368Z,12.63
2019-03-27T22:03:51.349Z,12.80
2019-03-27T22:06:21.198Z,13.18
2019-03-27T22:08:54.343Z,11.75
2019-03-27T22:11:25.988Z,12.63
2019-03-27T22:13:58.227Z,16.67
2019-03-27T22:16:28.170Z,12.53
2019-03-27T22:18:59.570Z,14.68
2019-03-27T22:21:29.577Z,13.33
2019-03-27T22:24:08.540Z,15.72
2019-03-27T22:26:41.334Z,13.95
2019-03-27T22:29:18.457Z,12.75
2019-03-27T22:31:54.379Z,14.78
2019-03-27T22:34:29.712Z,12.88
2019-03-27T22:37:03.706Z,13.53
2019-03-27T22:39:33.596Z,13.43
2019-03-27T22:42:11.913Z,16.42
2019-03-27T22:44:43.280Z,14.98
2019-03-27T22:47:35.585Z,16.23
2019-03-27T22:50:08.857Z,30.25
2019-03-27T22:52:52.783Z,23.42
2019-03-27T22:55:49.559Z,50.85
2019-03-27T22:58:23.522Z,40.78
2019-03-27T23:01:13.873Z,24.82
2019-03-27T23:03:48.579Z,38.50
2019-03-27T23:06:28.307Z,16.42
2019-03-27T23:08:58.237Z,16.23
2019-03-27T23:11:47.094Z,18.23
2019-03-27T23:14:29.630Z,17.82
2019-03-27T23:17:04.376Z,19.07
2019-03-27T23:19:34.839Z,21.57
2019-03-27T23:22:06.091Z,22.52
2019-03-27T23:24:42.954Z,23.18
2019-03-27T23:27:14.352Z,20.90
2019-03-27T23:29:45.537Z,21.87
2019-03-27T23:32:17.957Z,20.50
2019-03-27T23:34:54.139Z,21.62
2019-03-27T23:37:30.206Z,20.65
2019-03-27T23:40:00.096Z,20.32
2019-03-27T23:42:31.790Z,21.40
2019-03-27T23:45:02.377Z,24.07
2019-03-27T23:47:49.016Z,20.37
2019-03-27T23:50:20.739Z,19.52
2019-03-27T23:52:50.546Z,20.02
2019-03-27T23:55:29.287Z,20.43
2019-03-27T23:58:22.414Z,20.95
